Time;durP1;ratioP1;P1;durP2;ratioP2;P2;SDS_P1;SDS_P2;PMS_P1;PMS_P2;Temp;Humidity;BMP_temperature;BMP_pressure;BME280_temperature;BME280_humidity;BME280_pressure;Samples;Min_cycle;Max_cycle;Signal;HPM_P1;HPM_P2
2022/03/15 00:00:33;;;;;;;41.95;20.40;;;;;;;5.33;100.00;102756.47;5225585;28;20443;-74
2022/03/15 00:03:03;;;;;;;40.83;21.30;;;;;;;5.33;100.00;102758.28;5225830;28;20086;-74
2022/03/15 00:05:34;;;;;;;43.45;21.48;;;;;;;5.31;100.00;102755.66;5225352;28;20333;-74
2022/03/15 00:08:05;;;;;;;43.00;19.73;;;;;;;5.31;100.00;102753.00;5224165;28;20130;-74
2022/03/15 00:10:36;;;;;;;39.92;19.45;;;;;;;5.31;100.00;102760.13;5224140;28;20481;-74
2022/03/15 00:13:07;;;;;;;39.90;18.27;;;;;;;5.33;100.00;102767.09;5225452;28;20028;-74
2022/03/15 00:15:39;;;;;;;45.50;20.70;;;;;;;5.36;100.00;102760.75;5224939;28;20017;-74
2022/03/15 00:18:10;;;;;;;43.72;20.55;;;;;;;5.34;100.00;102767.97;5225128;28;20032;-74
2022/03/15 00:20:40;;;;;;;40.92;21.35;;;;;;;5.28;100.00;102760.31;5225156;28;20033;-74
2022/03/15 00:23:10;;;;;;;42.15;21.50;;;;;;;5.19;100.00;102764.34;5225082;28;20025;-74
2022/03/15 00:25:41;;;;;;;39.75;20.60;;;;;;;5.14;100.00;102753.97;5215495;28;20107;-74
2022/03/15 00:28:12;;;;;;;42.13;21.23;;;;;;;5.12;100.00;102752.31;5220882;28;20416;-74
2022/03/15 00:30:42;;;;;;;41.05;21.58;;;;;;;5.11;100.00;102743.47;5224476;28;20451;-74
2022/03/15 00:33:13;;;;;;;40.00;20.27;;;;;;;5.10;100.00;102749.75;5223466;28;20056;-74
2022/03/15 00:35:44;;;;;;;38.05;20.00;;;;;;;5.11;100.00;102751.44;5223497;28;20099;-74
2022/03/15 00:38:15;;;;;;;41.13;21.10;;;;;;;5.09;100.00;102755.16;5224911;28;20557;-74
2022/03/15 00:40:45;;;;;;;46.30;23.15;;;;;;;5.07;100.00;102757.03;5224788;28;20025;-74
2022/03/15 00:43:16;;;;;;;45.47;20.08;;;;;;;5.05;100.00;102757.13;5202691;28;20021;-74
2022/03/15 00:45:46;;;;;;;45.92;22.23;;;;;;;5.04;100.00;102766.03;5218033;28;20021;-74
2022/03/15 00:48:18;;;;;;;49.45;22.15;;;;;;;5.02;100.00;102754.66;5224934;28;20063;-74
2022/03/15 00:50:48;;;;;;;43.75;20.73;;;;;;;4.99;100.00;102754.78;5224413;28;20025;-74
2022/03/15 00:53:19;;;;;;;50.35;22.55;;;;;;;4.97;100.00;102748.72;5224757;28;20036;-74
2022/03/15 00:55:50;;;;;;;38.13;19.90;;;;;;;4.97;100.00;102751.38;5223798;28;20484;-74
2022/03/15 00:58:20;;;;;;;41.92;21.50;;;;;;;4.96;100.00;102751.44;5224608;28;20385;-74
2022/03/15 01:00:51;;;;;;;44.90;21.58;;;;;;;4.93;100.00;102748.00;5224238;28;20073;-74
2022/03/15 01:03:21;;;;;;;38.90;21.73;;;;;;;4.90;100.00;102744.66;5224785;28;20104;-74
2022/03/15 01:05:52;;;;;;;39.75;20.65;;;;;;;4.88;100.00;102744.75;5222806;28;20028;-74
2022/03/15 01:08:22;;;;;;;40.95;20.80;;;;;;;4.88;100.00;102742.09;5224300;28;20108;-74
2022/03/15 01:10:53;;;;;;;36.83;20.98;;;;;;;4.89;100.00;102743.81;5224137;28;20064;-74
2022/03/15 01:13:23;;;;;;;38.58;21.30;;;;;;;4.88;100.00;102730.59;5224515;28;20032;-75
2022/03/15 01:15:54;;;;;;;44.22;21.75;;;;;;;4.85;100.00;102736.91;5223057;28;20024;-74
2022/03/15 01:18:24;;;;;;;38.92;21.02;;;;;;;4.82;100.00;102733.56;5224152;28;20020;-75
2022/03/15 01:20:55;;;;;;;34.13;19.85;;;;;;;4.78;100.00;102732.03;5223836;28;20032;-74
2022/03/15 01:23:25;;;;;;;42.20;20.38;;;;;;;4.74;100.00;102733.13;5224115;28;20028;-74
2022/03/15 01:25:56;;;;;;;42.78;20.13;;;;;;;4.73;100.00;102728.75;5211276;28;20402;-74
2022/03/15 01:28:27;;;;;;;40.85;20.33;;;;;;;4.73;100.00;102734.94;5222184;28;20489;-75
2022/03/15 01:30:58;;;;;;;38.97;20.45;;;;;;;4.73;100.00;102726.97;5223826;28;20093;-74
2022/03/15 01:33:28;;;;;;;40.55;19.65;;;;;;;4.73;100.00;102724.31;5224290;28;20512;-74
2022/03/15 01:35:59;;;;;;;49.25;21.40;;;;;;;4.71;100.00;102720.00;5223574;28;20031;-74
2022/03/15 01:38:30;;;;;;;44.33;21.83;;;;;;;4.69;100.00;102720.09;5224429;28;20386;-74
2022/03/15 01:41:01;;;;;;;39.10;20.50;;;;;;;4.67;100.00;102714.00;5224001;28;20039;-75
2022/03/15 01:43:33;;;;;;;36.60;20.23;;;;;;;4.64;100.00;102717.66;5224075;28;20103;-74
2022/03/15 01:46:04;;;;;;;37.83;19.80;;;;;;;4.62;100.00;102716.91;5222787;28;20554;-74
2022/03/15 01:48:35;;;;;;;41.47;22.17;;;;;;;4.54;100.00;102712.94;5222753;28;20049;-74
2022/03/15 01:51:07;;;;;;;44.25;21.67;;;;;;;4.51;100.00;102702.44;5223654;28;20439;-74
2022/03/15 01:53:37;;;;;;;46.60;22.70;;;;;;;4.50;100.00;102706.06;5223805;28;20029;-74
2022/03/15 01:56:08;;;;;;;41.45;21.65;;;;;;;4.50;100.00;102700.75;5222917;28;20507;-74
2022/03/15 01:58:38;;;;;;;37.38;21.33;;;;;;;4.49;100.00;102704.34;5223735;28;20463;-74
2022/03/15 02:01:09;;;;;;;47.08;20.55;;;;;;;4.50;100.00;102698.06;5222346;28;20085;-74
2022/03/15 02:03:39;;;;;;;50.20;20.58;;;;;;;4.51;100.00;102691.81;5224336;28;20024;-75
2022/03/15 02:06:10;;;;;;;47.53;20.63;;;;;;;4.52;100.00;102686.44;5223640;28;20024;-73
2022/03/15 02:08:41;;;;;;;42.50;21.80;;;;;;;4.54;100.00;102679.22;5223630;28;20159;-74
2022/03/15 02:11:13;;;;;;;46.63;21.65;;;;;;;4.55;100.00;102677.44;5223864;28;20057;-74
2022/03/15 02:14:03;;;;;;;42.47;21.45;;;;;;;4.55;100.00;102674.78;5224478;28;20607;-74
2022/03/15 02:16:33;;;;;;;42.92;21.10;;;;;;;4.54;100.00;102668.59;5223426;28;20017;-74
2022/03/15 02:19:05;;;;;;;46.90;21.40;;;;;;;4.55;100.00;102670.31;5223619;28;20029;-74
2022/03/15 02:21:36;;;;;;;40.90;20.20;;;;;;;4.56;100.00;102674.69;5223631;28;20302;-74
2022/03/15 02:24:07;;;;;;;43.17;19.42;;;;;;;4.59;100.00;102668.34;5223449;28;20021;-74
2022/03/15 02:26:38;;;;;;;45.97;20.58;;;;;;;4.60;100.00;102662.09;5210472;28;20021;-74
2022/03/15 02:29:10;;;;;;;39.92;20.55;;;;;;;4.61;100.00;102661.13;5223058;28;20024;-74
2022/03/15 02:31:40;;;;;;;43.75;22.05;;;;;;;4.61;100.00;102654.03;5222877;28;20031;-74
2022/03/15 02:34:11;;;;;;;40.92;19.63;;;;;;;4.59;100.00;102652.41;5222164;28;20396;-74
2022/03/15 02:36:41;;;;;;;41.42;19.02;;;;;;;4.59;100.00;102652.41;5223708;28;20017;-74
2022/03/15 02:39:13;;;;;;;39.33;18.23;;;;;;;4.61;100.00;102642.53;5223572;28;20021;-74
2022/03/15 02:41:43;;;;;;;42.50;19.63;;;;;;;4.66;100.00;102645.78;5223587;28;20021;-74
2022/03/15 02:44:14;;;;;;;50.60;21.08;;;;;;;4.66;100.00;102638.69;5222834;28;20438;-73
2022/03/15 02:47:04;;;;;;;35.22;17.73;;;;;;;4.66;100.00;102627.19;5223620;28;20055;-74
2022/03/15 02:49:34;;;;;;;39.83;18.42;;;;;;;4.65;100.00;102626.34;5222268;28;20021;-74
2022/03/15 02:52:05;;;;;;;40.28;19.63;;;;;;;4.63;100.00;102622.06;5223478;28;20032;-74
2022/03/15 02:54:40;;;;;;;38.90;18.00;;;;;;;4.61;100.00;102621.25;5221495;28;20078;-74
2022/03/15 02:57:11;;;;;;;38.53;17.65;;;;;;;4.59;100.00;102617.84;5225779;28;20017;-74
2022/03/15 02:59:43;;;;;;;41.45;17.60;;;;;;;4.57;100.00;102623.25;5226189;28;20549;-74
2022/03/15 03:02:14;;;;;;;41.95;18.85;;;;;;;4.55;100.00;102613.63;5227306;28;20059;-74
2022/03/15 03:04:44;;;;;;;40.85;16.90;;;;;;;4.55;100.00;102608.31;5226673;28;20025;-74
2022/03/15 03:07:17;;;;;;;48.25;18.73;;;;;;;4.55;100.00;102603.00;5226544;28;20041;-74
2022/03/15 03:09:48;;;;;;;37.88;16.92;;;;;;;4.54;100.00;102602.16;5227056;28;20488;-74
2022/03/15 03:12:18;;;;;;;39.40;17.65;;;;;;;4.55;100.00;102603.00;5225707;28;20040;-74
2022/03/15 03:14:50;;;;;;;41.83;17.48;;;;;;;4.55;100.00;102600.34;5225462;28;20020;-74
2022/03/15 03:17:23;;;;;;;40.63;16.83;;;;;;;4.53;100.00;102595.13;5226601;28;20055;-73
2022/03/15 03:19:53;;;;;;;32.42;16.50;;;;;;;4.54;100.00;102596.84;5226611;28;20053;-74
2022/03/15 03:22:23;;;;;;;47.10;17.45;;;;;;;4.53;100.00;102596.94;5225547;28;20068;-74
2022/03/15 03:24:54;;;;;;;45.22;17.77;;;;;;;4.52;100.00;102592.53;5223409;28;20055;-74
2022/03/15 03:27:25;;;;;;;39.60;16.10;;;;;;;4.54;100.00;102595.97;5216271;28;20057;-74
2022/03/15 03:29:57;;;;;;;36.13;16.45;;;;;;;4.54;100.00;102595.97;5224910;28;20104;-74
2022/03/15 03:32:28;;;;;;;41.72;16.48;;;;;;;4.58;100.00;102594.88;5225695;28;20111;-74
2022/03/15 03:35:04;;;;;;;36.53;15.70;;;;;;;4.58;100.00;102603.69;5225057;28;20104;-74
2022/03/15 03:37:34;;;;;;;32.45;15.55;;;;;;;4.59;100.00;102591.25;5226652;28;20031;-74
2022/03/15 03:40:07;;;;;;;38.00;15.93;;;;;;;4.54;100.00;102598.63;5226446;28;20033;-74
2022/03/15 03:42:37;;;;;;;34.95;15.50;;;;;;;4.51;100.00;102591.66;5226023;28;20021;-74
2022/03/15 03:45:08;;;;;;;31.52;15.80;;;;;;;4.48;100.00;102591.00;5227191;28;20387;-74
2022/03/15 03:47:39;;;;;;;39.67;16.55;;;;;;;4.50;100.00;102594.41;5230787;28;20033;-74
2022/03/15 03:50:10;;;;;;;37.03;14.98;;;;;;;4.50;100.00;102591.75;5229662;28;20028;-74
2022/03/15 03:52:40;;;;;;;33.50;15.02;;;;;;;4.54;100.00;102603.94;5225196;28;20032;-73
2022/03/15 03:55:11;;;;;;;30.92;14.32;;;;;;;4.55;100.00;102601.19;5225537;28;20025;-74
2022/03/15 03:57:41;;;;;;;32.85;15.02;;;;;;;4.58;100.00;102603.69;5226039;28;20055;-74
2022/03/15 04:00:13;;;;;;;37.42;16.48;;;;;;;4.66;100.00;102605.91;5225931;28;20070;-74
2022/03/15 04:02:43;;;;;;;30.13;12.57;;;;;;;4.72;100.00;102599.41;5224938;28;20036;-74
2022/03/15 04:05:16;;;;;;;35.17;12.50;;;;;;;4.75;100.00;102594.78;5225640;28;20034;-74
2022/03/15 04:07:46;;;;;;;36.55;13.20;;;;;;;4.78;100.00;102593.75;5225238;28;20056;-74
2022/03/15 04:10:22;;;;;;;27.27;13.05;;;;;;;4.82;100.00;102587.31;5225852;28;20048;-74
2022/03/15 04:12:54;;;;;;;;;;;;;;;4.83;100.00;102589.03;5225521;28;20505;-74
2022/03/15 04:15:24;;;;;;;30.42;13.18;;;;;;;4.86;100.00;102586.19;5225478;28;19908;-74
2022/03/15 04:17:55;;;;;;;32.22;12.55;;;;;;;4.90;100.00;102585.06;5224402;28;20025;-74
2022/03/15 04:20:25;;;;;;;32.80;12.90;;;;;;;4.90;100.00;102583.28;5225425;28;20021;-74
2022/03/15 04:22:56;;;;;;;33.90;12.15;;;;;;;4.93;100.00;102588.44;5225667;28;20028;-74
2022/03/15 04:25:26;;;;;;;27.30;12.27;;;;;;;4.96;100.00;102583.88;5216866;28;20363;-74
2022/03/15 04:28:00;;;;;;;25.63;12.10;;;;;;;4.97;100.00;102580.25;5219395;28;20474;-74
2022/03/15 04:30:32;;;;;;;32.17;13.15;;;;;;;4.97;100.00;102585.56;5224748;28;20029;-73
2022/03/15 04:33:02;;;;;;;27.40;11.88;;;;;;;4.96;100.00;102578.53;5225255;28;20128;-73
2022/03/15 04:35:34;;;;;;;41.42;14.88;;;;;;;4.96;100.00;102576.75;5225026;28;20104;-74
2022/03/15 04:38:05;;;;;;;28.65;11.73;;;;;;;4.94;100.00;102568.84;5225158;28;20025;-74
2022/03/15 04:40:35;;;;;;;38.05;12.43;;;;;;;4.94;100.00;102574.19;5224190;28;20031;-74
2022/03/15 04:43:06;;;;;;;30.25;11.88;;;;;;;4.94;100.00;102566.19;5224893;28;20041;-74
2022/03/15 04:45:37;;;;;;;31.98;12.55;;;;;;;4.93;100.00;102569.81;5224912;28;20507;-74
2022/03/15 04:48:07;;;;;;;28.45;12.13;;;;;;;4.93;100.00;102566.31;5225066;28;20025;-74
2022/03/15 04:50:38;;;;;;;24.77;10.55;;;;;;;4.91;100.00;102565.50;5224875;28;20017;-73
2022/03/15 04:53:08;;;;;;;29.67;12.27;;;;;;;4.92;100.00;102564.59;5225186;28;20021;-74
2022/03/15 04:55:39;;;;;;;33.03;12.23;;;;;;;4.95;100.00;102561.72;5224585;28;20439;-74
2022/03/15 04:58:09;;;;;;;29.42;11.02;;;;;;;4.95;100.00;102553.75;5225197;28;20441;-74
2022/03/15 05:00:40;;;;;;;25.00;11.98;;;;;;;4.99;100.00;102554.44;5224735;28;20027;-74
2022/03/15 05:03:11;;;;;;;31.27;11.45;;;;;;;5.03;100.00;102545.34;5225162;28;20063;-74
2022/03/15 05:05:41;;;;;;;31.10;11.10;;;;;;;5.05;100.00;102546.97;5224328;28;20431;-74
2022/03/15 05:08:12;;;;;;;27.75;11.43;;;;;;;5.10;100.00;102541.38;5224885;28;20033;-74
2022/03/15 05:13:35;;;;;;;29.65;10.25;;;;;;;5.11;100.00;102543.94;5225077;28;20295;-74
2022/03/15 05:16:07;;;;;;;27.05;10.35;;;;;;;5.09;100.00;102532.53;5224357;28;20029;-74
2022/03/15 05:18:40;;;;;;;30.08;10.35;;;;;;;5.09;100.00;102527.22;5224503;28;20023;-74
2022/03/15 05:21:16;;;;;;;26.30;10.13;;;;;;;5.10;100.00;102528.06;5223698;28;20048;-74
2022/03/15 05:23:48;;;;;;;24.85;9.75;;;;;;;5.09;100.00;102521.91;5224408;28;20400;-74
2022/03/15 05:26:18;;;;;;;23.20;9.70;;;;;;;5.10;100.00;102522.75;5210564;28;20033;-74
2022/03/15 05:28:50;;;;;;;22.48;9.18;;;;;;;5.08;100.00;102524.66;5224078;28;20554;-74
2022/03/15 05:31:22;;;;;;;21.52;9.82;;;;;;;5.05;100.00;102523.00;5224018;28;20040;-74
2022/03/15 05:33:53;;;;;;;20.50;9.57;;;;;;;5.06;100.00;102519.41;5224553;28;20029;-74
2022/03/15 05:36:23;;;;;;;22.33;9.40;;;;;;;5.09;100.00;102513.91;5223961;28;20019;-74
2022/03/15 05:38:54;;;;;;;30.05;10.13;;;;;;;5.09;100.00;102502.41;5224187;28;20028;-74
2022/03/15 05:41:24;;;;;;;21.33;9.48;;;;;;;5.13;100.00;102501.31;5224242;28;20566;-74
2022/03/15 05:43:55;;;;;;;22.48;8.85;;;;;;;5.18;100.00;102504.53;5224239;28;20079;-74
2022/03/15 05:46:26;;;;;;;30.45;10.90;;;;;;;5.19;100.00;102517.75;5223763;28;20023;-74
2022/03/15 05:48:56;;;;;;;19.85;8.50;;;;;;;5.23;100.00;102510.44;5222980;28;20025;-74
2022/03/15 05:51:27;;;;;;;24.38;9.95;;;;;;;5.24;100.00;102503.31;5223861;28;20067;-74
2022/03/15 05:53:57;;;;;;;26.20;9.55;;;;;;;5.26;100.00;102504.91;5222918;28;20519;-75
2022/03/15 05:56:28;;;;;;;25.45;9.45;;;;;;;5.35;100.00;102503.53;5223800;28;20366;-74
2022/03/15 05:58:58;;;;;;;17.48;9.63;;;;;;;5.40;100.00;102506.78;5224140;28;20198;-74
2022/03/15 06:01:29;;;;;;;28.10;9.45;;;;;;;5.40;100.00;102507.63;5223811;28;20029;-74
2022/03/15 06:03:59;;;;;;;21.48;9.20;;;;;;;5.43;100.00;102511.91;5224030;28;20032;-74
2022/03/15 06:06:30;;;;;;;25.50;10.18;;;;;;;5.44;100.00;102511.81;5222452;28;20048;-74
2022/03/15 06:09:00;;;;;;;22.60;8.63;;;;;;;5.44;100.00;102501.16;5223863;28;20056;-74
2022/03/15 06:11:32;;;;;;;28.33;9.50;;;;;;;5.50;100.00;102507.94;5223051;28;20025;-74
2022/03/15 06:14:02;;;;;;;23.95;10.07;;;;;;;5.53;100.00;102509.56;5222632;28;20029;-74
2022/03/15 06:16:33;;;;;;;20.80;9.40;;;;;;;5.59;100.00;102509.19;5223712;28;20370;-74
2022/03/15 06:19:04;;;;;;;20.88;9.07;;;;;;;5.62;100.00;102501.00;5223752;28;20025;-74
2022/03/15 06:21:34;;;;;;;19.00;8.45;;;;;;;5.65;100.00;102507.00;5217214;28;20029;-75
2022/03/15 06:24:06;;;;;;;21.90;8.70;;;;;;;5.66;100.00;102513.16;5218444;28;20036;-74
2022/03/15 06:26:38;;;;;;;22.88;9.68;;;;;;;5.69;100.00;102508.53;5222156;28;20028;-75
2022/03/15 06:29:08;;;;;;;21.60;10.13;;;;;;;5.74;100.00;102512.72;5222184;28;20028;-75
2022/03/15 06:31:39;;;;;;;21.13;8.95;;;;;;;5.74;100.00;102515.38;5224582;28;20474;-75
2022/03/15 06:34:09;;;;;;;21.13;8.68;;;;;;;5.75;100.00;102517.09;5227642;28;20031;-75
2022/03/15 06:36:42;;;;;;;17.38;8.57;;;;;;;5.76;100.00;102518.78;5226426;28;20052;-75
2022/03/15 06:39:12;;;;;;;17.02;8.48;;;;;;;5.78;100.00;102511.59;5218782;28;20148;-74
2022/03/15 06:41:43;;;;;;;27.27;8.90;;;;;;;5.78;100.00;102515.09;5225421;28;20029;-75
2022/03/15 06:44:15;;;;;;;15.25;8.05;;;;;;;5.75;100.00;102506.44;5227275;28;20116;-74
2022/03/15 06:46:45;;;;;;;18.90;8.00;;;;;;;5.79;100.00;102510.63;5227748;28;20021;-74
2022/03/15 06:49:16;;;;;;;24.40;9.75;;;;;;;5.83;100.00;102502.34;5226567;28;20378;-75
2022/03/15 06:51:46;;;;;;;21.63;9.27;;;;;;;5.89;100.00;102501.13;5227545;28;20112;-74
2022/03/15 06:54:17;;;;;;;25.33;9.35;;;;;;;5.93;100.00;102494.69;5226681;28;20028;-75
2022/03/15 06:56:49;;;;;;;20.08;8.65;;;;;;;5.96;100.00;102490.00;5223616;28;20027;-74
2022/03/15 06:59:20;;;;;;;19.42;8.48;;;;;;;6.00;100.00;102489.81;5225935;28;20111;-75
2022/03/15 07:01:50;;;;;;;26.42;8.80;;;;;;;6.07;100.00;102486.66;5227271;28;20108;-74
2022/03/15 07:04:21;;;;;;;20.98;8.00;;;;;;;6.08;100.00;102485.72;5226767;28;20452;-75
2022/03/15 07:06:51;;;;;;;19.58;8.57;;;;;;;6.12;100.00;102486.34;5226236;28;20112;-75
2022/03/15 07:09:22;;;;;;;29.55;8.98;;;;;;;6.15;100.00;102489.69;5226875;28;20403;-75
2022/03/15 07:11:52;;;;;;;20.42;8.43;;;;;;;6.21;100.00;102477.78;5226023;28;20021;-75
2022/03/15 07:14:23;;;;;;;31.20;8.05;;;;;;;6.24;100.00;102480.25;5225566;28;20477;-74
2022/03/15 07:16:53;;;;;;;25.70;9.13;;;;;;;6.27;100.00;102479.19;5226460;28;20494;-75
2022/03/15 07:19:24;;;;;;;24.27;9.20;;;;;;;6.31;100.00;102480.72;5225907;28;20039;-74
2022/03/15 07:21:54;;;;;;;20.40;8.10;;;;;;;6.32;100.00;102482.41;5221542;28;20092;-74
2022/03/15 07:24:25;;;;;;;16.15;7.57;;;;;;;6.34;100.00;102483.19;5212342;28;20029;-73
2022/03/15 07:26:55;;;;;;;30.45;8.05;;;;;;;6.36;100.00;102476.78;5224797;28;20029;-74
2022/03/15 07:29:26;;;;;;;16.55;7.80;;;;;;;6.44;100.00;102479.84;5225147;28;20055;-74
2022/03/15 07:31:56;;;;;;;21.15;7.60;;;;;;;6.41;100.00;102477.34;5226343;28;20092;-73
2022/03/15 07:34:27;;;;;;;21.90;7.55;;;;;;;6.45;100.00;102476.22;5226504;28;20025;-77
2022/03/15 07:36:57;;;;;;;21.67;7.47;;;;;;;6.47;100.00;102474.28;5227359;28;20036;-76
2022/03/15 07:39:28;;;;;;;17.35;7.75;;;;;;;6.57;100.00;102473.69;5226378;28;20021;-77
2022/03/15 07:41:58;;;;;;;23.67;7.72;;;;;;;6.63;100.00;102470.63;5226000;28;20111;-76
2022/03/15 07:44:29;;;;;;;20.20;8.57;;;;;;;6.62;100.00;102456.41;5225019;28;20025;-77
2022/03/15 07:46:59;;;;;;;22.88;8.13;;;;;;;6.69;100.00;102460.41;5225430;28;20040;-75
2022/03/15 07:49:30;;;;;;;22.85;7.50;;;;;;;6.77;100.00;102461.69;5212607;28;20039;-73
2022/03/15 07:52:00;;;;;;;20.65;8.00;;;;;;;6.86;100.00;102461.94;5222833;28;20059;-73
2022/03/15 07:54:31;;;;;;;17.52;7.10;;;;;;;6.93;100.00;102457.94;5224157;28;20093;-74
2022/03/15 07:57:03;;;;;;;17.15;6.97;;;;;;;6.98;100.00;102454.94;5225032;28;20373;-74
2022/03/15 07:59:33;;;;;;;18.92;7.65;;;;;;;7.06;100.00;102455.25;5224669;28;20112;-74
2022/03/15 08:02:04;;;;;;;23.02;7.63;;;;;;;7.10;100.00;102454.09;5224746;28;20100;-74
2022/03/15 08:04:35;;;;;;;22.58;7.10;;;;;;;7.13;100.00;102451.25;5224614;28;20025;-76
2022/03/15 08:07:05;;;;;;;18.85;7.13;;;;;;;7.19;100.00;102444.63;5224366;28;20496;-74
2022/03/15 08:09:37;;;;;;;15.18;6.93;;;;;;;7.25;100.00;102455.72;5224843;28;20048;-75
2022/03/15 08:12:08;;;;;;;20.02;7.85;;;;;;;7.30;100.00;102447.41;5223476;28;20025;-74
2022/03/15 08:14:38;;;;;;;17.55;7.70;;;;;;;7.31;100.00;102442.91;5224187;28;20036;-74
2022/03/15 08:17:09;;;;;;;18.63;6.95;;;;;;;7.37;100.00;102447.81;5224345;28;20124;-73
2022/03/15 08:19:39;;;;;;;17.58;7.38;;;;;;;7.40;100.00;102451.13;5223875;28;20615;-74
2022/03/15 08:22:10;;;;;;;26.48;7.75;;;;;;;7.46;100.00;102445.38;5224373;28;20036;-75
2022/03/15 08:24:41;;;;;;;18.23;7.38;;;;;;;7.47;100.00;102449.75;5210506;28;20031;-74
2022/03/15 08:27:11;;;;;;;16.23;7.00;;;;;;;7.47;100.00;102447.06;5222861;28;20401;-75
2022/03/15 08:29:43;;;;;;;16.50;6.72;;;;;;;7.55;100.00;102448.38;5222730;28;20021;-73
2022/03/15 08:32:14;;;;;;;19.60;6.88;;;;;;;7.64;100.00;102445.06;5223927;28;20095;-74
2022/03/15 08:34:45;;;;;;;19.45;7.10;;;;;;;7.65;100.00;102442.25;5224164;28;20464;-74
2022/03/15 08:37:16;;;;;;;16.35;6.65;;;;;;;7.74;100.00;102451.44;5222965;28;20512;-75
2022/03/15 08:39:46;;;;;;;20.95;6.55;;;;;;;7.76;100.00;102445.03;5224219;28;20059;-74
2022/03/15 08:42:17;;;;;;;24.85;7.38;;;;;;;7.83;100.00;102452.59;5222650;28;20035;-73
2022/03/15 08:44:47;;;;;;;14.93;6.70;;;;;;;7.86;100.00;102447.91;5221964;28;20153;-75
2022/03/15 08:47:18;;;;;;;19.98;6.70;;;;;;;7.92;100.00;102438.59;5223403;28;20501;-75
2022/03/15 08:49:49;;;;;;;13.00;6.55;;;;;;;7.95;100.00;102441.03;5222649;28;20029;-75
2022/03/15 08:52:19;;;;;;;15.82;6.43;;;;;;;8.04;100.00;102437.72;5223722;28;20059;-74
2022/03/15 08:54:51;;;;;;;19.27;6.60;;;;;;;8.07;100.00;102436.63;5222931;28;20441;-74
2022/03/15 08:57:23;;;;;;;15.48;6.55;;;;;;;8.08;100.00;102432.97;5222125;28;20055;-75
2022/03/15 08:59:53;;;;;;;12.48;6.53;;;;;;;8.15;100.00;102428.91;5222284;28;20031;-75
2022/03/15 09:02:24;;;;;;;16.40;5.95;;;;;;;8.19;100.00;102438.41;5223845;28;20032;-75
2022/03/15 09:04:54;;;;;;;14.07;5.85;;;;;;;8.23;100.00;102431.84;5223025;28;20054;-74
2022/03/15 09:07:25;;;;;;;19.35;7.65;;;;;;;8.31;100.00;102424.13;5223249;28;20473;-75
2022/03/15 09:09:57;;;;;;;19.92;6.47;;;;;;;8.38;100.00;102424.56;5222489;28;20033;-75
2022/03/15 09:12:28;;;;;;;20.67;7.22;;;;;;;8.45;100.00;102418.66;5227796;28;20103;-74
2022/03/15 09:14:58;;;;;;;16.08;6.07;;;;;;;8.50;100.00;102421.00;5223605;28;20128;-74
2022/03/15 09:17:29;;;;;;;12.80;5.85;;;;;;;8.55;100.00;102424.19;5223597;28;20492;-73
2022/03/15 09:20:00;;;;;;;13.20;5.82;;;;;;;8.60;100.00;102418.50;5222787;28;20489;-73
2022/03/15 09:22:31;;;;;;;11.98;5.47;;;;;;;8.66;100.00;102429.56;5222260;28;20025;-74
2022/03/15 09:25:02;;;;;;;18.08;6.13;;;;;;;8.74;100.00;102419.16;5223164;28;20191;-75
2022/03/15 09:27:33;;;;;;;34.05;7.05;;;;;;;8.80;100.00;102416.00;5221542;28;20147;-75
2022/03/15 09:30:05;;;;;;;23.60;6.15;;;;;;;8.88;100.00;102412.72;5222800;28;20101;-75
2022/03/15 09:32:35;;;;;;;21.80;6.10;;;;;;;8.98;100.00;102418.22;5221818;28;20033;-75
2022/03/15 09:35:06;;;;;;;17.73;6.35;;;;;;;9.06;100.00;102418.50;5221900;28;20021;-76
2022/03/15 09:37:37;;;;;;;33.10;6.82;;;;;;;9.11;100.00;102420.84;5223268;28;20031;-77
2022/03/15 09:40:09;;;;;;;17.10;6.47;;;;;;;9.12;100.00;102420.72;5223998;28;20040;-77
2022/03/15 09:42:41;;;;;;;13.80;5.57;;;;;;;9.12;100.00;102411.81;5223844;28;20029;-76
2022/03/15 09:45:12;;;;;;;18.85;5.75;;;;;;;9.05;100.00;102417.66;5222492;28;20060;-75
2022/03/15 09:47:45;;;;;;;15.00;5.97;;;;;;;9.09;100.00;102415.59;5221393;28;20101;-76
2022/03/15 09:50:16;;;;;;;16.02;6.43;;;;;;;9.13;100.00;102416.19;5221220;28;20036;-75
2022/03/15 09:52:48;;;;;;;16.63;6.35;;;;;;;9.14;100.00;102418.78;5222789;28;20078;-75
2022/03/15 09:55:19;;;;;;;14.73;5.78;;;;;;;9.21;100.00;102416.47;5222319;28;20095;-75
2022/03/15 09:57:51;;;;;;;17.63;6.00;;;;;;;9.26;100.00;102423.19;5222441;28;20091;-77
2022/03/15 10:00:21;;;;;;;13.75;5.72;;;;;;;9.31;100.00;102420.13;5222614;28;20201;-76
2022/03/15 10:02:52;;;;;;;19.77;5.90;;;;;;;9.36;100.00;102415.28;5221457;28;20025;-75
2022/03/15 10:05:24;;;;;;;18.45;5.70;;;;;;;9.38;100.00;102424.03;5222640;28;20079;-74
2022/03/15 10:07:55;;;;;;;18.05;6.32;;;;;;;9.44;100.00;102418.22;5224918;28;20036;-74
2022/03/15 10:10:26;;;;;;;16.45;5.50;;;;;;;9.46;100.00;102420.75;5227503;28;20075;-74
2022/03/15 10:12:57;;;;;;;17.15;5.85;;;;;;;9.53;100.00;102409.44;5227104;28;20025;-73
2022/03/15 10:15:27;;;;;;;14.30;6.07;;;;;;;9.56;100.00;102405.66;5226954;28;20035;-77
2022/03/15 10:20:48;;;;;;;20.00;7.10;;;;;;;9.63;100.00;102392.63;5227265;28;20032;-77
2022/03/15 10:23:22;;;;;;;13.27;6.30;;;;;;;9.69;100.00;102394.81;5220842;28;20033;-79
2022/03/15 10:25:53;;;;;;;11.73;5.47;;;;;;;9.64;100.00;102391.66;5223609;28;20044;-77
2022/03/15 10:28:23;;;;;;;14.38;5.75;;;;;;;9.70;100.00;102392.03;5225466;28;20473;-75
2022/03/15 10:30:56;;;;;;;13.90;5.63;;;;;;;9.67;100.00;102383.38;5226390;28;20540;-75
2022/03/15 10:33:27;;;;;;;14.20;5.55;;;;;;;9.67;100.00;102386.91;5227011;28;20480;-75
2022/03/15 10:35:58;;;;;;;15.65;5.50;;;;;;;9.71;100.00;102380.31;5225093;28;20044;-75
2022/03/15 10:38:28;;;;;;;17.90;6.25;;;;;;;9.83;100.00;102383.84;5226498;28;20050;-75
2022/03/15 10:41:01;;;;;;;15.88;6.57;;;;;;;9.85;100.00;102374.72;5226547;28;20020;-75
2022/03/15 10:43:32;;;;;;;10.90;5.43;;;;;;;9.94;100.00;102381.16;5226327;28;20021;-75
2022/03/15 10:46:02;;;;;;;11.98;5.97;;;;;;;9.93;100.00;102370.53;5226284;28;20029;-76
2022/03/15 10:48:35;;;;;;;11.80;5.47;;;;;;;10.00;100.00;102358.34;5239426;28;20063;-76
2022/03/15 10:51:07;;;;;;;14.20;5.57;;;;;;;10.08;100.00;102348.69;5226004;28;20024;-75
2022/03/15 10:53:42;;;;;;;18.50;7.10;;;;;;;10.06;100.00;102342.59;5225353;28;20539;-75
2022/03/15 10:56:15;;;;;;;12.70;5.20;;;;;;;10.16;100.00;102334.66;5224382;28;20413;-75
2022/03/15 10:58:49;;;;;;;15.13;5.60;;;;;;;10.18;100.00;102335.38;5224726;28;20623;-75
2022/03/15 11:01:23;;;;;;;16.67;5.95;;;;;;;10.27;100.00;102328.44;5225078;28;20032;-75
2022/03/15 11:03:56;;;;;;;9.05;5.65;;;;;;;10.41;100.00;102324.59;5225866;28;20025;-75
2022/03/15 11:06:46;;;;;;;13.70;5.88;;;;;;;10.57;100.00;102325.84;5223278;28;20399;-75
2022/03/15 11:09:36;;;;;;;12.60;5.63;;;;;;;10.76;100.00;102321.59;5225309;28;20052;-75
2022/03/15 11:12:08;;;;;;;11.25;5.75;;;;;;;10.81;100.00;102317.53;5212952;28;20021;-75
2022/03/15 11:14:59;;;;;;;14.05;5.35;;;;;;;10.95;100.00;102307.44;5224713;28;20520;-75
2022/03/15 11:17:34;;;;;;;10.05;5.20;;;;;;;11.15;100.00;102310.09;5225488;28;20397;-75
2022/03/15 11:20:07;;;;;;;18.17;5.45;;;;;;;11.37;100.00;102302.81;5225591;28;20017;-76
2022/03/15 11:22:38;;;;;;;12.13;5.00;;;;;;;11.53;100.00;102302.28;5225246;28;20116;-75
2022/03/15 11:25:14;;;;;;;15.85;5.63;;;;;;;11.64;100.00;102289.59;5224648;28;20127;-76
2022/03/15 11:27:46;;;;;;;17.65;5.82;;;;;;;11.68;100.00;102282.09;5223886;28;20052;-76
2022/03/15 11:30:19;;;;;;;10.13;4.97;;;;;;;11.79;100.00;102273.91;5225493;28;20021;-75
2022/03/15 11:32:51;;;;;;;14.73;4.25;;;;;;;11.84;100.00;102276.22;5225831;28;20484;-75
2022/03/15 11:35:23;;;;;;;7.47;4.43;;;;;;;12.06;100.00;102280.50;5225240;28;20032;-75
2022/03/15 11:37:53;;;;;;;10.70;4.90;;;;;;;12.18;100.00;102282.03;5224471;28;20017;-77